Time;durP1;ratioP1;P1;durP2;ratioP2;P2;SDS_P1;SDS_P2;PMS_P1;PMS_P2;Temp;Humidity;BMP_temperature;BMP_pressure;BME280_temperature;BME280_humidity;BME280_pressure;Samples;Min_cycle;Max_cycle;Signal;HPM_P1;HPM_P2
2021/12/01 00:00:19;;;;;;;3.17;0.52;;;24.90;99.90;;;;;;5051908;28;20206;-66
2021/12/01 00:02:56;;;;;;;4.32;0.80;;;24.80;99.90;;;;;;5047210;28;20221;-66
2021/12/01 00:05:25;;;;;;;1.55;0.40;;;24.80;99.90;;;;;;5067048;28;20277;-65
2021/12/01 00:07:53;;;;;;;1.00;0.40;;;24.70;99.90;;;;;;5067684;28;20185;-66
2021/12/01 00:10:48;;;;;;;0.70;0.40;;;24.70;99.90;;;;;;5056376;28;20219;-65
2021/12/01 00:13:18;;;;;;;1.77;0.40;;;24.90;99.90;;;;;;5062016;28;20210;-66
2021/12/01 00:15:51;;;;;;;1.90;0.60;;;25.00;99.90;;;;;;5056852;28;20219;-65
2021/12/01 00:18:18;;;;;;;1.65;0.70;;;25.00;99.90;;;;;;5065798;28;20257;-66
2021/12/01 00:20:46;;;;;;;1.60;0.60;;;25.00;99.90;;;;;;5064637;28;20217;-65
2021/12/01 00:23:14;;;;;;;1.70;0.45;;;25.00;99.90;;;;;;5067007;28;20184;-66
2021/12/01 00:25:47;;;;;;;2.05;0.32;;;24.90;99.90;;;;;;5066211;28;20556;-66
2021/12/01 00:28:14;;;;;;;6.15;0.70;;;24.90;99.90;;;;;;5066260;28;20227;-67
2021/12/01 00:30:42;;;;;;;1.83;0.70;;;24.80;99.90;;;;;;5055742;28;20182;-65
2021/12/01 00:33:12;;;;;;;1.10;0.50;;;24.80;99.90;;;;;;5066141;28;20181;-65
2021/12/01 00:35:55;;;;;;;1.85;0.73;;;24.80;99.90;;;;;;5067036;28;20685;-65
2021/12/01 00:38:23;;;;;;;1.52;0.40;;;24.60;99.90;;;;;;5051055;28;20166;-65
2021/12/01 00:40:51;;;;;;;5.00;0.60;;;24.80;99.90;;;;;;5055158;28;20257;-66
2021/12/01 00:43:19;;;;;;;3.45;0.50;;;24.70;99.90;;;;;;5065528;28;20166;-65
2021/12/01 00:46:10;;;;;;;3.83;0.70;;;24.80;99.90;;;;;;5054301;28;20290;-65
2021/12/01 00:48:38;;;;;;;2.15;0.40;;;24.80;99.90;;;;;;5063633;28;20696;-64
2021/12/01 00:51:05;;;;;;;1.80;0.60;;;24.90;99.90;;;;;;5060661;28;20178;-65
2021/12/01 00:53:32;;;;;;;3.17;0.65;;;25.00;99.90;;;;;;5057195;28;20212;-65
2021/12/01 00:55:59;;;;;;;2.15;0.50;;;25.00;99.90;;;;;;5065541;28;20279;-66
2021/12/01 00:58:26;;;;;;;1.15;0.45;;;24.90;99.90;;;;;;5061068;28;20170;-66
2021/12/01 01:01:01;;;;;;;1.33;0.52;;;25.00;99.90;;;;;;5056046;28;22011;-65
2021/12/01 01:03:49;;;;;;;0.77;0.40;;;25.10;99.90;;;;;;5053168;28;20197;-66
2021/12/01 01:06:17;;;;;;;2.35;0.52;;;25.30;99.90;;;;;;5062504;28;20201;-64
2021/12/01 01:08:45;;;;;;;1.33;0.50;;;25.30;99.90;;;;;;5059130;28;20648;-66
2021/12/01 01:16:49;;;;;;;0.55;0.25;;;25.40;99.90;;;;;;5066094;28;20239;-65
2021/12/01 01:19:18;;;;;;;1.35;0.38;;;25.50;99.90;;;;;;5063241;28;20539;-66
2021/12/01 01:21:50;;;;;;;0.45;0.40;;;25.50;99.90;;;;;;5065284;28;20170;-66
2021/12/01 01:24:19;;;;;;;3.42;0.50;;;25.50;99.90;;;;;;5064856;28;20748;-66
2021/12/01 01:26:46;;;;;;;0.95;0.30;;;25.50;99.90;;;;;;5053270;28;20189;-66
2021/12/01 01:29:14;;;;;;;1.08;0.40;;;25.50;99.90;;;;;;5049584;28;20205;-65
2021/12/01 01:31:41;;;;;;;1.45;0.40;;;25.60;99.90;;;;;;5061481;28;20166;-67
2021/12/01 01:34:08;;;;;;;0.85;0.40;;;25.70;99.90;;;;;;5049824;28;20275;-67
2021/12/01 01:36:36;;;;;;;1.83;0.45;;;25.70;99.90;;;;;;5050242;28;20169;-66
2021/12/01 01:39:05;;;;;;;0.28;0.28;;;25.80;99.90;;;;;;5057500;28;20594;-65
2021/12/01 01:41:32;;;;;;;3.78;0.55;;;25.90;99.90;;;;;;5055356;28;20646;-67
2021/12/01 01:43:59;;;;;;;4.05;0.57;;;26.00;99.90;;;;;;5064377;28;20192;-66
2021/12/01 01:46:32;;;;;;;1.45;0.50;;;26.10;99.90;;;;;;5064356;28;20177;-67
2021/12/01 01:49:07;;;;;;;1.38;0.40;;;26.10;99.90;;;;;;5064521;28;20178;-67
2021/12/01 01:51:34;;;;;;;0.93;0.40;;;26.00;99.90;;;;;;5045857;28;20552;-65
2021/12/01 01:54:02;;;;;;;2.17;0.50;;;26.10;99.90;;;;;;5044996;28;20221;-67
2021/12/01 01:56:30;;;;;;;2.88;0.60;;;26.20;99.90;;;;;;5049144;28;20639;-68
2021/12/01 01:58:58;;;;;;;0.50;0.30;;;26.40;99.90;;;;;;5052766;28;20175;-67
2021/12/01 02:01:44;;;;;;;1.88;0.50;;;26.50;99.90;;;;;;5064305;28;20178;-66
2021/12/01 02:04:13;;;;;;;3.22;0.50;;;26.50;99.90;;;;;;5065817;28;20184;-66
2021/12/01 02:06:40;;;;;;;0.88;0.32;;;26.20;99.90;;;;;;5060552;28;20665;-66
2021/12/01 02:09:08;;;;;;;0.57;0.32;;;26.20;99.90;;;;;;5062218;28;20165;-66
2021/12/01 02:11:36;;;;;;;0.40;0.40;;;26.20;99.90;;;;;;5058795;28;20210;-67
2021/12/01 02:14:04;;;;;;;0.80;0.40;;;26.10;99.90;;;;;;5052782;28;20222;-65
2021/12/01 02:16:33;;;;;;;0.68;0.32;;;26.10;99.90;;;;;;5064159;28;20162;-67
2021/12/01 02:19:00;;;;;;;0.88;0.40;;;26.00;99.90;;;;;;5058558;28;20228;-67
2021/12/01 02:21:29;;;;;;;3.05;0.57;;;25.90;99.90;;;;;;5065566;28;20177;-66
2021/12/01 02:24:00;;;;;;;1.02;0.32;;;25.80;99.90;;;;;;5052388;28;20609;-66
2021/12/01 02:26:30;;;;;;;0.95;0.40;;;25.70;99.90;;;;;;5063110;28;20262;-66
2021/12/01 02:29:01;;;;;;;0.70;0.30;;;25.60;99.90;;;;;;5064075;28;20178;-65
2021/12/01 02:31:33;;;;;;;1.38;0.35;;;25.50;99.90;;;;;;5064575;28;20404;-66
2021/12/01 02:34:01;;;;;;;2.45;0.50;;;25.40;99.90;;;;;;5063972;28;20465;-65
2021/12/01 02:36:29;;;;;;;1.35;0.32;;;25.10;99.90;;;;;;5057562;28;20294;-66
2021/12/01 02:38:56;;;;;;;0.30;0.30;;;25.30;99.90;;;;;;5063785;28;20186;-64
2021/12/01 02:41:33;;;;;;;1.52;0.52;;;25.30;99.90;;;;;;5064501;28;20457;-65
2021/12/01 02:44:01;;;;;;;2.70;0.32;;;25.30;99.90;;;;;;5064014;28;20239;-67
2021/12/01 02:46:29;;;;;;;0.63;0.40;;;25.40;99.90;;;;;;5064560;28;20265;-64
2021/12/01 02:48:57;;;;;;;1.58;0.40;;;25.70;99.90;;;;;;5052320;28;20183;-67
2021/12/01 02:51:28;;;;;;;0.52;0.40;;;25.90;99.90;;;;;;5067892;28;20190;-64
2021/12/01 02:53:56;;;;;;;0.52;0.40;;;26.10;99.90;;;;;;5068720;28;20288;-66
2021/12/01 02:56:24;;;;;;;1.73;0.40;;;26.20;99.90;;;;;;5066635;28;20182;-65
2021/12/01 02:58:52;;;;;;;0.65;0.30;;;26.30;99.90;;;;;;5069373;28;20197;-66
2021/12/01 03:01:22;;;;;;;1.63;0.47;;;26.30;99.90;;;;;;5069500;28;20186;-67
2021/12/01 03:03:51;;;;;;;0.88;0.50;;;26.30;99.90;;;;;;5069385;28;20177;-66
2021/12/01 03:06:20;;;;;;;0.60;0.40;;;26.30;99.90;;;;;;5070423;28;20197;-66
2021/12/01 03:08:47;;;;;;;0.60;0.40;;;26.40;99.90;;;;;;5069004;28;20200;-66
2021/12/01 03:11:16;;;;;;;0.68;0.30;;;26.40;99.90;;;;;;5064255;28;20338;-64
2021/12/01 03:13:44;;;;;;;0.35;0.30;;;26.40;99.90;;;;;;5068869;28;20236;-65
2021/12/01 03:16:15;;;;;;;0.80;0.22;;;26.40;99.90;;;;;;5069920;28;20200;-66
2021/12/01 03:18:44;;;;;;;2.08;0.57;;;26.50;99.90;;;;;;5069621;28;20255;-65
2021/12/01 03:21:12;;;;;;;2.15;0.40;;;26.50;99.90;;;;;;5069238;28;20178;-67
2021/12/01 03:23:40;;;;;;;0.40;0.30;;;26.40;99.90;;;;;;5069202;28;20173;-65
2021/12/01 03:26:08;;;;;;;0.77;0.40;;;26.40;99.90;;;;;;5061337;28;20679;-66
2021/12/01 03:28:36;;;;;;;1.70;0.40;;;26.30;99.90;;;;;;5063597;28;20643;-66
2021/12/01 03:31:03;;;;;;;0.28;0.22;;;26.40;99.90;;;;;;5054506;28;20177;-66
2021/12/01 03:33:30;;;;;;;0.93;0.32;;;26.40;99.90;;;;;;5055042;28;20248;-66
2021/12/01 03:35:58;;;;;;;1.02;0.40;;;26.40;99.90;;;;;;5062723;28;20183;-67
2021/12/01 03:38:27;;;;;;;0.65;0.30;;;26.40;99.90;;;;;;5058989;28;20161;-66
2021/12/01 03:40:57;;;;;;;0.55;0.40;;;26.50;99.90;;;;;;5067741;28;20273;-64
2021/12/01 03:43:24;;;;;;;0.77;0.43;;;26.40;99.90;;;;;;5053220;28;20881;-66
2021/12/01 03:45:52;;;;;;;1.05;0.30;;;26.30;99.90;;;;;;5062175;28;20186;-66
2021/12/01 03:48:21;;;;;;;0.73;0.40;;;26.40;99.90;;;;;;5069071;28;20162;-67
2021/12/01 03:50:50;;;;;;;0.73;0.38;;;26.40;99.90;;;;;;5065661;28;20182;-66
2021/12/01 03:53:22;;;;;;;1.77;0.40;;;26.30;99.90;;;;;;5061170;28;20198;-67
2021/12/01 03:55:50;;;;;;;0.40;0.30;;;26.30;99.90;;;;;;5049133;28;20213;-66
2021/12/01 03:58:17;;;;;;;1.23;0.40;;;26.20;99.90;;;;;;5054219;28;20169;-65
2021/12/01 04:00:45;;;;;;;2.03;0.65;;;26.30;99.90;;;;;;5060409;28;20178;-66
2021/12/01 04:03:12;;;;;;;0.77;0.60;;;26.40;99.90;;;;;;5067672;28;20173;-66
2021/12/01 04:05:40;;;;;;;0.30;0.30;;;26.40;99.90;;;;;;5064449;28;20205;-65
2021/12/01 04:08:08;;;;;;;2.38;1.85;;;26.40;99.90;;;;;;5055938;28;20216;-66
2021/12/01 04:10:35;;;;;;;0.75;0.75;;;26.40;99.90;;;;;;5066892;28;20535;-65
2021/12/01 04:13:03;;;;;;;1.33;0.55;;;26.40;99.90;;;;;;5065178;28;20273;-65
2021/12/01 04:15:30;;;;;;;2.92;0.50;;;26.40;99.90;;;;;;5064929;28;20197;-66
2021/12/01 04:17:57;;;;;;;5.88;0.45;;;26.30;99.90;;;;;;5055265;28;20190;-67
2021/12/01 04:20:25;;;;;;;0.55;0.30;;;26.30;99.90;;;;;;5056294;28;20209;-68
2021/12/01 04:22:53;;;;;;;2.40;0.40;;;26.30;99.90;;;;;;5057932;28;20166;-67
2021/12/01 04:25:20;;;;;;;1.15;0.45;;;26.30;99.90;;;;;;5065818;28;20204;-68
2021/12/01 04:27:48;;;;;;;1.00;0.40;;;26.30;99.90;;;;;;5059959;28;20190;-65
2021/12/01 04:30:21;;;;;;;0.30;0.30;;;26.30;99.90;;;;;;5061861;28;20178;-67
2021/12/01 04:32:49;;;;;;;0.40;0.40;;;26.20;99.90;;;;;;5066106;28;20549;-66
2021/12/01 04:35:18;;;;;;;1.13;0.50;;;26.20;99.90;;;;;;5066090;28;20669;-65
2021/12/01 04:37:46;;;;;;;0.90;0.32;;;26.20;99.90;;;;;;5059057;28;20177;-67
2021/12/01 04:40:15;;;;;;;2.63;0.50;;;26.20;99.90;;;;;;5056651;28;20288;-66
2021/12/01 04:42:43;;;;;;;1.83;0.50;;;26.20;99.90;;;;;;5060502;28;20177;-66
2021/12/01 04:45:16;;;;;;;1.33;0.40;;;26.20;99.90;;;;;;5054552;28;20201;-66
2021/12/01 04:47:48;;;;;;;1.13;0.30;;;26.20;99.90;;;;;;5055192;28;20221;-65
2021/12/01 04:50:17;;;;;;;0.40;0.40;;;26.30;99.90;;;;;;5058981;28;20197;-65
2021/12/01 04:52:45;;;;;;;0.40;0.40;;;26.20;99.90;;;;;;5056914;28;20182;-66
2021/12/01 04:55:13;;;;;;;1.58;0.40;;;26.20;99.90;;;;;;5053796;28;20209;-66
2021/12/01 04:57:46;;;;;;;0.47;0.40;;;26.20;99.90;;;;;;5065621;28;20186;-66
2021/12/01 05:00:17;;;;;;;1.08;0.40;;;26.30;99.90;;;;;;5067577;28;20205;-66
2021/12/01 05:02:44;;;;;;;0.80;0.30;;;26.20;99.90;;;;;;5056321;28;20733;-67
2021/12/01 05:05:11;;;;;;;0.50;0.30;;;26.20;99.90;;;;;;5062699;28;20658;-65
2021/12/01 05:07:39;;;;;;;0.85;0.30;;;26.20;99.90;;;;;;5064178;28;20543;-66
2021/12/01 05:10:07;;;;;;;1.40;0.30;;;26.20;99.90;;;;;;5064022;28;20204;-66
2021/12/01 05:12:35;;;;;;;1.00;0.30;;;26.30;99.90;;;;;;5065706;28;20224;-67
2021/12/01 05:15:02;;;;;;;0.88;0.60;;;26.30;99.90;;;;;;5066118;28;20229;-67
2021/12/01 05:17:30;;;;;;;1.63;0.40;;;26.20;99.90;;;;;;5064256;28;20272;-66
2021/12/01 05:19:57;;;;;;;1.33;0.40;;;26.30;99.90;;;;;;5066039;28;20178;-66
2021/12/01 05:22:25;;;;;;;0.40;0.35;;;26.20;99.90;;;;;;5066061;28;20181;-67
2021/12/01 05:24:54;;;;;;;2.08;0.43;;;26.20;99.90;;;;;;5062656;28;21024;-67
2021/12/01 05:27:22;;;;;;;0.57;0.40;;;26.10;99.90;;;;;;5047701;28;20178;-67
2021/12/01 05:29:49;;;;;;;0.30;0.30;;;26.10;99.90;;;;;;5063653;28;20547;-66
2021/12/01 05:32:17;;;;;;;0.60;0.38;;;26.20;99.90;;;;;;5055328;28;20174;-66
2021/12/01 05:34:44;;;;;;;1.10;0.30;;;26.20;99.90;;;;;;5066774;28;20209;-67
2021/12/01 05:37:11;;;;;;;2.38;0.40;;;26.40;99.90;;;;;;5067565;28;20498;-66
2021/12/01 05:39:41;;;;;;;1.02;0.40;;;26.50;99.90;;;;;;5066228;28;20209;-66
2021/12/01 05:42:09;;;;;;;0.70;0.40;;;26.50;99.90;;;;;;5054543;28;20181;-67
2021/12/01 05:44:36;;;;;;;0.45;0.32;;;26.40;99.90;;;;;;5066506;28;20196;-66
2021/12/01 05:47:04;;;;;;;0.88;0.40;;;26.40;99.90;;;;;;5054154;28;20207;-66
2021/12/01 05:49:32;;;;;;;1.98;0.50;;;26.40;99.90;;;;;;5067044;28;20239;-66
2021/12/01 05:52:00;;;;;;;0.30;0.30;;;26.30;99.90;;;;;;5067224;28;20181;-67
2021/12/01 05:54:27;;;;;;;1.33;0.50;;;26.40;99.90;;;;;;5067084;28;20674;-65
2021/12/01 05:56:54;;;;;;;0.55;0.47;;;26.40;99.90;;;;;;5066906;28;20767;-64
2021/12/01 05:59:21;;;;;;;0.70;0.35;;;26.40;99.90;;;;;;5067209;28;20201;-66
2021/12/01 06:01:48;;;;;;;0.88;0.30;;;26.30;99.90;;;;;;5067047;28;20166;-66
2021/12/01 06:04:15;;;;;;;2.95;0.50;;;26.30;99.90;;;;;;5066564;28;20217;-67
2021/12/01 06:06:43;;;;;;;0.50;0.35;;;26.40;99.90;;;;;;5065639;28;20184;-66
2021/12/01 06:09:10;;;;;;;1.83;0.40;;;26.30;99.90;;;;;;5054985;28;20635;-65
2021/12/01 06:11:37;;;;;;;0.52;0.35;;;26.20;99.90;;;;;;5060891;28;20701;-67
2021/12/01 06:14:04;;;;;;;0.88;0.40;;;26.30;99.90;;;;;;5046033;28;20230;-66
2021/12/01 06:16:31;;;;;;;0.60;0.30;;;26.30;99.90;;;;;;5063601;28;20176;-67
2021/12/01 06:18:58;;;;;;;0.75;0.30;;;26.20;99.90;;;;;;5063844;28;20592;-66
2021/12/01 06:21:26;;;;;;;1.33;0.40;;;26.10;99.90;;;;;;5066666;28;20162;-65
2021/12/01 06:23:53;;;;;;;1.95;0.40;;;26.00;99.90;;;;;;5069735;28;20272;-66
2021/12/01 06:26:20;;;;;;;4.07;0.70;;;25.90;99.90;;;;;;5071233;28;20166;-68
2021/12/01 06:28:47;;;;;;;1.15;0.40;;;25.70;99.90;;;;;;5057526;28;20174;-66
2021/12/01 06:31:14;;;;;;;0.70;0.25;;;25.40;99.90;;;;;;5063000;28;20542;-66
2021/12/01 06:33:41;;;;;;;1.92;0.30;;;25.20;99.90;;;;;;5062789;28;20223;-67
2021/12/01 06:36:09;;;;;;;2.38;0.30;;;24.90;99.90;;;;;;5070282;28;20189;-66
2021/12/01 06:38:41;;;;;;;0.95;0.30;;;24.70;99.90;;;;;;5070650;28;20185;-66
2021/12/01 06:41:09;;;;;;;1.83;0.20;;;24.50;99.90;;;;;;5055456;28;20178;-67
2021/12/01 06:43:36;;;;;;;0.98;0.40;;;24.40;99.90;;;;;;5070637;28;20223;-66
2021/12/01 06:46:03;;;;;;;2.08;0.40;;;24.40;99.90;;;;;;5051254;28;20193;-66
2021/12/01 06:48:30;;;;;;;0.98;0.40;;;24.40;99.90;;;;;;5061184;28;20178;-66
2021/12/01 06:50:57;;;;;;;1.75;0.38;;;24.40;99.90;;;;;;5055320;28;20643;-65
2021/12/01 06:53:26;;;;;;;1.45;0.25;;;24.40;99.90;;;;;;5062824;28;20243;-66
2021/12/01 06:55:54;;;;;;;0.63;0.40;;;24.50;99.90;;;;;;5061318;28;20260;-65
2021/12/01 06:58:22;;;;;;;1.13;0.40;;;24.90;99.90;;;;;;5066380;28;20185;-67
2021/12/01 07:00:49;;;;;;;1.23;0.35;;;25.00;99.90;;;;;;5057869;28;20763;-67
2021/12/01 07:03:17;;;;;;;3.38;0.40;;;25.10;99.90;;;;;;5058226;28;20170;-66
2021/12/01 07:05:44;;;;;;;3.00;0.20;;;25.00;99.90;;;;;;5068212;28;20289;-66
2021/12/01 07:08:11;;;;;;;0.85;0.30;;;24.80;99.90;;;;;;5060312;28;20658;-66
2021/12/01 07:10:38;;;;;;;1.45;0.40;;;24.60;99.90;;;;;;5066923;28;20227;-66
2021/12/01 07:13:06;;;;;;;0.60;0.50;;;24.50;99.90;;;;;;5058987;28;20273;-68
2021/12/01 07:15:33;;;;;;;1.48;0.47;;;24.60;99.90;;;;;;5069311;28;20605;-67
2021/12/01 07:18:00;;;;;;;1.55;0.60;;;24.60;99.90;;;;;;5054923;28;20342;-68
2021/12/01 07:20:27;;;;;;;0.77;0.40;;;24.50;99.90;;;;;;5064958;28;20186;-67
2021/12/01 07:22:55;;;;;;;0.82;0.35;;;24.30;99.90;;;;;;5051078;28;20190;-67
2021/12/01 07:25:22;;;;;;;1.65;0.45;;;24.10;99.90;;;;;;5053053;28;20624;-66
2021/12/01 07:27:49;;;;;;;1.50;0.47;;;24.00;99.90;;;;;;5069755;28;20230;-67
2021/12/01 07:30:16;;;;;;;3.00;0.50;;;23.90;99.90;;;;;;5062048;28;20204;-67
2021/12/01 07:32:44;;;;;;;2.17;0.40;;;23.80;99.90;;;;;;5056636;28;20635;-66
2021/12/01 07:35:11;;;;;;;0.50;0.30;;;23.70;99.90;;;;;;5059416;28;20210;-66
2021/12/01 07:37:38;;;;;;;2.00;0.40;;;23.50;99.90;;;;;;5059424;28;20277;-67
2021/12/01 07:40:06;;;;;;;0.98;0.30;;;23.40;99.90;;;;;;5062361;28;20507;-67
2021/12/01 07:42:34;;;;;;;1.77;0.57;;;23.40;99.90;;;;;;5063433;28;20189;-67
2021/12/01 07:45:02;;;;;;;2.88;0.80;;;23.40;99.90;;;;;;5054549;28;20260;-67
2021/12/01 07:47:29;;;;;;;1.45;0.45;;;23.30;99.90;;;;;;5065167;28;20174;-67
2021/12/01 07:49:56;;;;;;;2.55;0.75;;;23.30;99.90;;;;;;5069131;28;20235;-67
2021/12/01 07:52:23;;;;;;;3.58;0.60;;;23.20;99.90;;;;;;5055924;28;20202;-66
2021/12/01 07:54:50;;;;;;;2.70;0.50;;;23.10;99.90;;;;;;5066747;28;20829;-66
2021/12/01 07:57:18;;;;;;;3.00;0.60;;;23.10;99.90;;;;;;5050313;28;20212;-68
2021/12/01 07:59:45;;;;;;;0.30;0.30;;;23.10;99.90;;;;;;5067023;28;20691;-68
2021/12/01 08:02:12;;;;;;;1.15;0.50;;;23.00;99.90;;;;;;5054785;28;20182;-67
2021/12/01 08:04:39;;;;;;;3.42;0.93;;;23.00;99.90;;;;;;5063252;28;20193;-67
2021/12/01 08:07:07;;;;;;;0.77;0.55;;;23.00;99.90;;;;;;5067833;28;20235;-66
2021/12/01 08:09:35;;;;;;;1.63;0.43;;;22.90;99.90;;;;;;5066644;28;20178;-67
2021/12/01 08:12:02;;;;;;;1.38;0.50;;;22.90;99.90;;;;;;5067429;28;20227;-67
2021/12/01 08:14:29;;;;;;;0.40;0.40;;;22.80;99.90;;;;;;5059379;28;20229;-67
2021/12/01 08:16:56;;;;;;;1.13;0.50;;;22.80;99.90;;;;;;5068221;28;20170;-67
2021/12/01 08:19:24;;;;;;;1.33;0.55;;;22.80;99.90;;;;;;5057639;28;20174;-65
2021/12/01 08:21:51;;;;;;;1.15;0.38;;;22.70;99.90;;;;;;5054528;28;20637;-67
2021/12/01 08:24:19;;;;;;;0.95;0.40;;;22.60;99.90;;;;;;5064819;28;20189;-66
2021/12/01 08:26:48;;;;;;;2.17;0.57;;;22.50;99.90;;;;;;5055465;28;20238;-68
2021/12/01 08:29:16;;;;;;;1.05;0.43;;;22.50;99.90;;;;;;5053481;28;20186;-69
2021/12/01 08:31:43;;;;;;;1.60;0.60;;;22.50;99.90;;;;;;5055725;28;20198;-67
2021/12/01 08:34:11;;;;;;;1.17;0.40;;;22.60;99.90;;;;;;5061425;28;21144;-66
2021/12/01 08:36:39;;;;;;;1.65;0.60;;;22.70;99.90;;;;;;5048856;28;20170;-67
2021/12/01 08:39:06;;;;;;;2.22;0.63;;;22.70;99.90;;;;;;5053191;28;20186;-67
2021/12/01 08:41:34;;;;;;;0.77;0.60;;;22.60;99.90;;;;;;5053202;28;20196;-67
2021/12/01 08:44:01;;;;;;;2.15;0.80;;;22.60;99.90;;;;;;5051035;28;20178;-68
2021/12/01 08:46:28;;;;;;;2.40;0.52;;;22.60;99.90;;;;;;5054392;28;20269;-68
2021/12/01 08:48:58;;;;;;;2.50;0.57;;;22.50;99.90;;;;;;5051382;28;20174;-68
2021/12/01 08:51:27;;;;;;;1.45;0.50;;;22.40;99.90;;;;;;5054915;28;20182;-67
2021/12/01 08:53:54;;;;;;;1.95;0.40;;;22.40;99.90;;;;;;5047801;28;20202;-68
2021/12/01 08:56:21;;;;;;;2.25;0.68;;;22.30;99.90;;;;;;5057549;28;20178;-66
2021/12/01 08:58:48;;;;;;;1.95;0.95;;;22.20;99.90;;;;;;5054571;28;20186;-67
2021/12/01 09:01:16;;;;;;;1.00;0.85;;;22.20;99.90;;;;;;5061580;28;20174;-66
2021/12/01 09:03:43;;;;;;;4.57;2.38;;;22.20;99.90;;;;;;5065894;28;20166;-66
2021/12/01 09:06:10;;;;;;;7.88;2.35;;;22.20;99.90;;;;;;5060507;28;20202;-67
2021/12/01 09:08:39;;;;;;;3.78;1.92;;;22.20;99.90;;;;;;5060198;28;20196;-66
2021/12/01 09:11:07;;;;;;;2.22;1.10;;;22.20;99.90;;;;;;5054458;28;20186;-67
2021/12/01 09:13:36;;;;;;;1.92;0.80;;;22.10;99.90;;;;;;5052399;28;20221;-68
2021/12/01 09:16:04;;;;;;;3.78;0.90;;;22.10;99.90;;;;;;5067107;28;20246;-68
2021/12/01 09:18:33;;;;;;;3.42;1.15;;;22.00;99.90;;;;;;5064932;28;20186;-68
2021/12/01 09:21:02;;;;;;;3.08;1.40;;;22.00;99.90;;;;;;5065297;28;20559;-66
2021/12/01 09:23:29;;;;;;;1.92;0.73;;;22.00;99.90;;;;;;5058786;28;20189;-67
2021/12/01 09:25:56;;;;;;;2.25;0.60;;;22.00;99.90;;;;;;5052422;28;20659;-67
2021/12/01 09:28:26;;;;;;;1.05;0.80;;;21.90;99.90;;;;;;5047382;28;20170;-67
2021/12/01 09:30:55;;;;;;;4.57;0.95;;;21.90;99.90;;;;;;5052705;28;20178;-67
2021/12/01 09:33:24;;;;;;;2.42;0.40;;;21.90;99.90;;;;;;5063695;28;20261;-69
2021/12/01 09:35:52;;;;;;;0.40;0.40;;;21.80;99.90;;;;;;5065663;28;20679;-67
2021/12/01 09:38:20;;;;;;;1.83;0.50;;;21.80;99.90;;;;;;5058239;28;20182;-69
2021/12/01 09:40:53;;;;;;;2.58;0.95;;;21.80;99.90;;;;;;5058304;28;20764;-68
2021/12/01 09:43:25;;;;;;;2.95;0.88;;;21.80;99.90;;;;;;5065442;28;20217;-67
2021/12/01 09:45:53;;;;;;;1.10;0.60;;;21.80;99.90;;;;;;5048811;28;20606;-67
2021/12/01 09:48:21;;;;;;;1.10;0.63;;;21.80;99.90;;;;;;5053469;28;20175;-69
2021/12/01 09:50:48;;;;;;;0.85;0.40;;;21.80;99.90;;;;;;5057018;28;20188;-67
2021/12/01 09:53:16;;;;;;;0.63;0.52;;;21.80;99.90;;;;;;5059847;28;20178;-67
2021/12/01 09:55:43;;;;;;;1.92;0.55;;;21.80;99.90;;;;;;5057955;28;20205;-67
2021/12/01 09:58:15;;;;;;;2.70;0.50;;;21.80;99.90;;;;;;5052878;28;20189;-67
2021/12/01 10:00:50;;;;;;;0.60;0.40;;;21.70;99.90;;;;;;5052046;28;20224;-67
2021/12/01 10:03:17;;;;;;;2.60;0.43;;;21.70;99.90;;;;;;5064148;28;20721;-67
2021/12/01 10:06:07;;;;;;;2.95;0.57;;;21.80;99.90;;;;;;5051912;28;21937;-67
2021/12/01 10:08:37;;;;;;;0.68;0.30;;;21.70;99.90;;;;;;5052174;28;20178;-68
2021/12/01 10:11:10;;;;;;;1.85;0.60;;;21.60;99.90;;;;;;5048845;28;20232;-68
2021/12/01 10:13:41;;;;;;;2.35;0.30;;;21.60;99.90;;;;;;5053548;28;20209;-68
2021/12/01 10:16:11;;;;;;;2.08;0.60;;;21.60;99.90;;;;;;5041903;28;20735;-66
2021/12/01 10:19:05;;;;;;;0.95;0.50;;;21.60;99.90;;;;;;5048686;28;20174;-67
2021/12/01 10:21:47;;;;;;;0.80;0.65;;;21.60;99.90;;;;;;5052324;28;20268;-67
2021/12/01 10:24:20;;;;;;;2.42;0.50;;;21.60;99.90;;;;;;5049117;28;20813;-69
2021/12/01 10:26:53;;;;;;;1.20;0.45;;;21.60;99.90;;;;;;5045868;28;20280;-63
2021/12/01 10:29:33;;;;;;;1.92;0.30;;;21.60;99.90;;;;;;5055367;28;20210;-62
2021/12/01 10:32:20;;;;;;;1.95;0.68;;;21.50;99.90;;;;;;5049013;28;20685;-69
2021/12/01 10:34:53;;;;;;;1.42;0.40;;;21.40;99.90;;;;;;5053866;28;20206;-63
2021/12/01 10:37:30;;;;;;;1.33;0.63;;;21.40;99.90;;;;;;5054256;28;20235;-65
2021/12/01 10:40:07;;;;;;;1.52;0.50;;;21.30;99.90;;;;;;5055776;28;20226;-63
2021/12/01 10:42:49;;;;;;;1.85;0.55;;;21.40;99.90;;;;;;5056645;28;20181;-64
2021/12/01 10:45:19;;;;;;;3.97;0.50;;;21.40;99.90;;;;;;5050947;28;20186;-63
2021/12/01 10:47:48;;;;;;;2.53;0.90;;;21.40;99.90;;;;;;5068164;28;20170;-63
2021/12/01 10:50:22;;;;;;;0.93;0.40;;;21.30;99.90;;;;;;5047772;28;20615;-63
2021/12/01 10:52:53;;;;;;;1.10;0.50;;;21.30;99.90;;;;;;5049297;28;20185;-62
2021/12/01 10:55:23;;;;;;;1.85;0.40;;;21.20;99.90;;;;;;5055120;28;20305;-63
2021/12/01 10:57:58;;;;;;;1.05;0.50;;;21.20;99.90;;;;;;5048633;28;20273;-63
2021/12/01 11:00:29;;;;;;;2.45;0.85;;;21.20;99.90;;;;;;5058336;28;20177;-64
2021/12/01 11:03:06;;;;;;;1.95;0.55;;;21.20;99.90;;;;;;5050931;28;20257;-64
2021/12/01 11:05:37;;;;;;;1.00;0.60;;;21.20;99.90;;;;;;5060026;28;20198;-63
2021/12/01 11:08:12;;;;;;;1.27;0.70;;;21.20;99.90;;;;;;5053728;28;20185;-63
2021/12/01 11:10:39;;;;;;;3.13;0.60;;;21.20;99.90;;;;;;5069165;28;20177;-63
2021/12/01 11:13:07;;;;;;;0.45;0.40;;;21.20;99.90;;;;;;5054674;28;20289;-63
2021/12/01 11:15:37;;;;;;;0.60;0.40;;;21.20;99.90;;;;;;5048997;28;20214;-64
2021/12/01 11:18:06;;;;;;;1.85;0.45;;;21.20;99.90;;;;;;5063041;28;20665;-64
2021/12/01 11:20:36;;;;;;;3.35;0.70;;;21.20;99.90;;;;;;5051865;28;20235;-63
2021/12/01 11:23:25;;;;;;;1.55;0.40;;;21.20;99.90;;;;;;5047109;28;20206;-64
2021/12/01 11:26:07;;;;;;;2.08;0.50;;;21.10;99.90;;;;;;5063158;28;20198;-64
2021/12/01 11:28:40;;;;;;;1.13;0.50;;;21.10;99.90;;;;;;5057976;28;20187;-62
2021/12/01 11:31:14;;;;;;;4.30;0.65;;;21.10;99.90;;;;;;5056321;28;20174;-63
2021/12/01 11:33:46;;;;;;;1.00;0.40;;;21.10;99.90;;;;;;5052438;28;20178;-63
2021/12/01 11:36:20;;;;;;;1.27;0.40;;;21.10;99.90;;;;;;5060544;28;20190;-63
2021/12/01 11:38:51;;;;;;;1.38;0.50;;;21.10;99.90;;;;;;5060720;28;20177;-63
2021/12/01 11:41:19;;;;;;;1.95;0.60;;;21.00;99.90;;;;;;5062979;28;20193;-64
2021/12/01 11:43:48;;;;;;;0.47;0.30;;;21.00;99.90;;;;;;5065603;28;20224;-63
2021/12/01 11:46:16;;;;;;;1.95;0.70;;;21.00;99.90;;;;;;5057354;28;20613;-63
2021/12/01 11:48:51;;;;;;;1.10;0.40;;;21.00;99.90;;;;;;5057209;28;20209;-63
2021/12/01 11:51:21;;;;;;;0.60;0.45;;;21.00;99.90;;;;;;5062337;28;20211;-63
2021/12/01 11:54:16;;;;;;;2.20;0.50;;;21.00;99.90;;;;;;5052285;28;20354;-62
2021/12/01 11:56:58;;;;;;;3.95;0.57;;;21.00;99.90;;;;;;5059042;28;20230;-63
2021/12/01 11:59:36;;;;;;;1.05;0.50;;;20.90;99.90;;;;;;5059793;28;20628;-62
2021/12/01 12:02:18;;;;;;;1.63;0.80;;;21.00;99.90;;;;;;5046172;28;20655;-62
2021/12/01 12:04:52;;;;;;;1.52;0.90;;;21.00;99.90;;;;;;5054806;28;20190;-63
2021/12/01 12:07:28;;;;;;;3.63;1.15;;;20.90;99.90;;;;;;5063551;28;20193;-63
2021/12/01 12:10:18;;;;;;;0.57;0.40;;;20.90;99.90;;;;;;5056945;28;20173;-63
2021/12/01 12:13:04;;;;;;;0.93;0.50;;;20.90;99.90;;;;;;5059983;28;20174;-64
2021/12/01 12:15:47;;;;;;;0.52;0.50;;;20.80;99.90;;;;;;5049260;28;20222;-64
2021/12/01 12:18:41;;;;;;;1.17;0.40;;;20.80;99.90;;;;;;5066039;28;20177;-63
2021/12/01 12:21:45;;;;;;;1.85;0.40;;;20.80;99.90;;;;;;5058756;28;20202;-64
2021/12/01 12:24:18;;;;;;;2.15;0.50;;;20.70;99.90;;;;;;5053873;28;20660;-62
2021/12/01 12:26:49;;;;;;;1.00;0.50;;;20.60;99.90;;;;;;5056666;28;20179;-63
2021/12/01 12:29:19;;;;;;;1.25;0.50;;;20.60;99.90;;;;;;5058821;28;20190;-63
2021/12/01 12:31:49;;;;;;;1.77;0.38;;;20.60;99.90;;;;;;5064371;28;20178;-63
2021/12/01 12:34:20;;;;;;;1.05;0.30;;;20.50;99.90;;;;;;5059428;28;20709;-62
2021/12/01 12:36:58;;;;;;;3.33;0.70;;;20.40;99.90;;;;;;5059099;28;20170;-63
2021/12/01 12:39:32;;;;;;;0.80;0.50;;;20.40;99.90;;;;;;5052754;28;20185;-63
2021/12/01 12:42:04;;;;;;;2.30;0.50;;;20.40;99.90;;;;;;5059166;28;20564;-62
2021/12/01 12:44:42;;;;;;;1.00;0.60;;;20.40;99.90;;;;;;5053139;28;20188;-62
2021/12/01 12:47:15;;;;;;;0.90;0.63;;;20.40;99.90;;;;;;5058159;28;20178;-64
2021/12/01 12:49:48;;;;;;;2.22;0.50;;;20.40;99.90;;;;;;5057917;28;20711;-62
2021/12/01 12:52:29;;;;;;;2.50;0.45;;;20.30;99.90;;;;;;5051372;28;20173;-63
2021/12/01 12:55:09;;;;;;;1.08;0.40;;;20.30;99.90;;;;;;5053776;28;20222;-63
2021/12/01 12:57:51;;;;;;;2.40;0.40;;;20.40;99.90;;;;;;5060478;28;20181;-63
2021/12/01 13:00:35;;;;;;;1.42;0.68;;;20.30;99.90;;;;;;5055080;28;20795;-63
2021/12/01 13:03:24;;;;;;;1.40;0.50;;;20.30;99.90;;;;;;5057653;28;20185;-64
2021/12/01 13:05:56;;;;;;;1.25;0.47;;;20.30;99.90;;;;;;5051261;28;20198;-62
2021/12/01 13:08:29;;;;;;;2.38;0.60;;;20.30;99.90;;;;;;5050694;28;20210;-62